Time;durP1;ratioP1;P1;durP2;ratioP2;P2;SDS_P1;SDS_P2;PMS_P1;PMS_P2;Temp;Humidity;BMP_temperature;BMP_pressure;BME280_temperature;BME280_humidity;BME280_pressure;Samples;Min_cycle;Max_cycle;Signal;HPM_P1;HPM_P2
2022/01/15 00:00:17;;;;;;;10.50;3.50;;;;;;;-0.64;79.20;101036.56;84581;1329;22595;-68
2022/01/15 00:02:48;;;;;;;11.40;3.50;;;;;;;-0.63;79.04;101034.52;84605;1330;24217;-68
2022/01/15 00:04:57;;;;;;;12.90;3.10;;;;;;;-0.64;78.82;101030.36;84622;1329;22610;-68
2022/01/15 00:07:06;;;;;;;8.90;3.60;;;;;;;-0.66;78.99;101032.56;84567;1332;22555;-68
2022/01/15 00:09:16;;;;;;;10.70;3.30;;;;;;;-0.69;79.23;101027.52;84618;1330;24290;-69
2022/01/15 00:11:26;;;;;;;12.50;3.60;;;;;;;-0.73;78.85;101028.48;84481;1332;22794;-69
2022/01/15 00:13:41;;;;;;;13.40;3.20;;;;;;;-0.77;78.92;101030.30;84597;1329;22697;-69
2022/01/15 00:16:01;;;;;;;10.10;2.50;;;;;;;-0.80;78.91;101040.00;84567;1329;24206;-69
2022/01/15 00:18:13;;;;;;;9.80;2.50;;;;;;;-0.82;78.97;101033.30;84598;1330;26517;-80
2022/01/15 00:20:25;;;;;;;7.10;2.50;;;;;;;-0.82;78.90;101032.09;84587;1330;24396;-81
2022/01/15 00:22:34;;;;;;;10.20;3.10;;;;;;;-0.82;79.07;101043.23;84590;1331;24280;-81
2022/01/15 00:24:46;;;;;;;9.40;2.50;;;;;;;-0.82;78.98;101031.77;84602;1332;22620;-68
2022/01/15 00:26:56;;;;;;;7.00;2.50;;;;;;;-0.81;79.09;101031.08;84575;1330;22608;-69
2022/01/15 00:29:08;;;;;;;10.90;3.90;;;;;;;-0.82;79.19;101036.05;84629;1321;22613;-69
2022/01/15 00:31:17;;;;;;;16.60;5.40;;;;;;;-0.80;79.20;101035.21;84619;1329;22596;-69
2022/01/15 00:33:29;;;;;;;12.70;3.70;;;;;;;-0.79;79.16;101037.63;84511;1332;22708;-70
2022/01/15 00:35:42;;;;;;;14.80;5.30;;;;;;;-0.80;79.05;101036.08;84624;1329;22614;-69
2022/01/15 00:37:56;;;;;;;9.10;3.20;;;;;;;-0.82;78.93;101040.14;84551;1327;22610;-69
2022/01/15 00:40:12;;;;;;;7.80;2.90;;;;;;;-0.86;79.02;101035.60;84657;1329;22622;-81
2022/01/15 00:42:21;;;;;;;9.70;4.00;;;;;;;-0.90;79.31;101025.61;84585;1330;23951;-80
2022/01/15 00:44:34;;;;;;;9.50;3.20;;;;;;;-0.92;79.25;101027.98;84637;1329;24419;-82
2022/01/15 00:46:43;;;;;;;7.80;4.30;;;;;;;-0.92;79.26;101026.94;84660;1329;22701;-81
2022/01/15 00:48:52;;;;;;;8.00;2.70;;;;;;;-0.92;79.30;101027.63;84569;1329;22608;-70
2022/01/15 00:51:02;;;;;;;7.60;3.00;;;;;;;-0.91;79.37;101037.05;84555;1332;22599;-70
2022/01/15 00:53:14;;;;;;;11.10;2.40;;;;;;;-0.91;79.22;101030.21;84554;1330;25461;-67
2022/01/15 00:55:25;;;;;;;8.40;2.70;;;;;;;-0.91;79.25;101025.58;84573;1330;23988;-68
2022/01/15 00:57:37;;;;;;;9.10;3.00;;;;;;;-0.91;79.09;101030.55;84579;1334;24322;-69
2022/01/15 00:59:46;;;;;;;9.50;3.20;;;;;;;-0.92;79.11;101026.09;84590;1330;22600;-81
2022/01/15 01:01:58;;;;;;;9.90;3.00;;;;;;;-0.93;79.29;101017.67;84629;1329;22642;-82
2022/01/15 01:04:08;;;;;;;6.60;2.30;;;;;;;-0.94;79.32;101029.63;84648;1330;22609;-69
2022/01/15 01:06:19;;;;;;;6.70;2.40;;;;;;;-0.95;79.19;101028.91;84586;1330;22632;-69
2022/01/15 01:08:31;;;;;;;14.60;3.40;;;;;;;-0.97;79.13;101024.79;84614;1329;22592;-81
2022/01/15 01:10:56;;;;;;;16.80;3.40;;;;;;;-0.98;79.23;101028.35;84631;1329;22619;-82
2022/01/15 01:13:28;;;;;;;10.40;3.30;;;;;;;-0.99;79.23;101036.90;84613;1329;24360;-70
2022/01/15 01:20:44;;;;;;;9.20;3.80;;;;;;;-0.95;79.62;101034.58;84609;1332;22621;-81
2022/01/15 01:22:56;;;;;;;8.20;2.90;;;;;;;-0.93;79.49;101040.29;84627;1330;23922;-81
2022/01/15 01:25:07;;;;;;;10.20;3.40;;;;;;;-0.93;79.40;101035.15;84595;1329;22600;-69
2022/01/15 01:27:22;;;;;;;9.60;3.10;;;;;;;-0.94;79.39;101037.00;84587;1329;24241;-69
2022/01/15 01:29:40;;;;;;;14.30;2.70;;;;;;;-0.95;79.46;101038.16;84576;1328;22841;-69
2022/01/15 01:31:57;;;;;;;16.30;4.40;;;;;;;-0.98;79.49;101042.24;84609;1329;22889;-69
2022/01/15 01:34:10;;;;;;;10.30;2.80;;;;;;;-1.00;79.56;101052.13;84626;1330;22604;-82
2022/01/15 01:36:24;;;;;;;14.20;3.20;;;;;;;-1.04;79.53;101045.20;84637;1332;25449;-81
2022/01/15 01:38:37;;;;;;;18.40;4.60;;;;;;;-1.05;79.83;101040.89;84565;1329;22609;-81
2022/01/15 01:40:49;;;;;;;11.50;3.60;;;;;;;-1.04;79.87;101044.84;84616;1333;22628;-81
2022/01/15 01:43:07;;;;;;;11.10;2.90;;;;;;;-1.05;79.73;101046.89;84652;1329;22614;-82
2022/01/15 01:45:22;;;;;;;14.00;3.20;;;;;;;-1.05;79.60;101044.67;84573;1330;22580;-81
2022/01/15 01:47:39;;;;;;;11.50;3.60;;;;;;;-1.06;80.03;101043.27;84578;1332;23951;-81
2022/01/15 01:49:48;;;;;;;9.90;3.50;;;;;;;-1.06;79.98;101044.98;84590;1335;22610;-66
2022/01/15 01:51:56;;;;;;;16.60;4.70;;;;;;;-1.07;80.02;101044.64;84619;1325;22664;-70
2022/01/15 01:54:07;;;;;;;8.80;3.10;;;;;;;-1.10;79.94;101040.28;84651;1329;22891;-68
2022/01/15 01:56:15;;;;;;;14.40;4.70;;;;;;;-1.13;80.19;101042.61;84591;1331;22587;-69
2022/01/15 01:58:27;;;;;;;12.80;3.80;;;;;;;-1.14;80.42;101048.23;84612;1330;26518;-79
2022/01/15 02:00:36;;;;;;;14.50;3.50;;;;;;;-1.14;80.47;101050.98;84567;1329;22880;-82
2022/01/15 02:02:45;;;;;;;12.60;3.80;;;;;;;-1.15;80.28;101045.99;84647;1329;22614;-81
2022/01/15 02:04:55;;;;;;;9.30;2.90;;;;;;;-1.14;80.58;101048.74;84568;1329;22617;-69
2022/01/15 02:07:05;;;;;;;8.20;3.50;;;;;;;-1.12;80.54;101050.87;84583;1333;22928;-68
2022/01/15 02:09:13;;;;;;;13.10;3.70;;;;;;;-1.12;80.78;101049.15;84593;1329;22707;-69
2022/01/15 02:11:26;;;;;;;11.20;3.40;;;;;;;-1.11;80.77;101046.77;84577;1328;22954;-67
2022/01/15 02:13:38;;;;;;;12.30;3.50;;;;;;;-1.11;81.05;101046.92;84505;1329;22882;-68
2022/01/15 02:15:50;;;;;;;15.10;4.10;;;;;;;-1.12;80.94;101046.91;83882;1327;1003262;-68
2022/01/15 02:17:59;;;;;;;14.50;4.10;;;;;;;-1.14;80.93;101045.00;84577;1330;22633;-68
2022/01/15 02:20:36;;;;;;;12.10;3.70;;;;;;;-1.17;80.80;101045.45;84611;1329;22609;-68
2022/01/15 02:25:13;;;;;;;9.50;3.00;;;;;;;-1.22;80.98;101038.15;84622;1329;22623;-80
2022/01/15 02:27:21;;;;;;;11.60;3.50;;;;;;;-1.22;81.15;101032.17;84606;1331;22625;-80
2022/01/15 02:29:34;;;;;;;15.80;4.40;;;;;;;-1.23;81.31;101029.06;84608;1329;26647;-68
2022/01/15 02:31:46;;;;;;;10.00;3.10;;;;;;;-1.24;81.31;101028.70;84545;1334;24171;-68
2022/01/15 02:33:57;;;;;;;22.20;5.40;;;;;;;-1.25;81.35;101037.41;84638;1321;23070;-80
2022/01/15 02:36:12;;;;;;;16.00;5.90;;;;;;;-1.24;81.41;101042.38;84596;1329;25493;-80
2022/01/15 02:38:21;;;;;;;18.00;3.70;;;;;;;-1.27;81.29;101045.25;84570;1331;22739;-68
2022/01/15 02:40:35;;;;;;;12.10;3.30;;;;;;;-1.29;81.47;101044.52;84560;1327;22614;-69
2022/01/15 02:42:44;;;;;;;6.60;2.30;;;;;;;-1.31;81.69;101042.58;84636;1329;23110;-69
2022/01/15 02:44:59;;;;;;;13.20;3.10;;;;;;;-1.33;81.64;101040.67;84595;1330;22712;-69
2022/01/15 02:49:43;;;;;;;13.70;4.20;;;;;;;-1.34;81.64;101040.48;84569;1330;22662;-70
2022/01/15 02:51:52;;;;;;;10.40;3.50;;;;;;;-1.32;81.59;101042.75;84635;1332;22603;-70
2022/01/15 02:54:04;;;;;;;13.50;3.90;;;;;;;-1.30;81.70;101043.64;84565;1329;22750;-70
2022/01/15 02:56:16;;;;;;;10.00;3.00;;;;;;;-1.27;81.89;101040.80;84592;1329;22582;-69
2022/01/15 02:58:28;;;;;;;8.60;2.90;;;;;;;-1.25;81.84;101042.70;84580;1329;22616;-80
2022/01/15 03:00:37;;;;;;;11.80;3.80;;;;;;;-1.26;81.68;101045.79;84623;1329;22688;-80
2022/01/15 03:02:46;;;;;;;10.80;3.10;;;;;;;-1.27;81.90;101038.91;84591;1330;24189;-80
2022/01/15 03:04:55;;;;;;;20.20;3.30;;;;;;;-1.29;81.89;101039.20;84591;1333;26031;-68
2022/01/15 03:07:05;;;;;;;12.20;3.60;;;;;;;-1.31;81.91;101039.67;84581;1332;22746;-68
2022/01/15 03:09:14;;;;;;;9.90;2.50;;;;;;;-1.33;81.87;101043.23;84603;1329;23793;-69
2022/01/15 03:11:29;;;;;;;9.10;2.20;;;;;;;-1.35;81.82;101045.58;84589;1329;22629;-69
2022/01/15 03:13:39;;;;;;;10.10;2.70;;;;;;;-1.36;81.77;101041.80;84537;1332;22626;-80
2022/01/15 03:15:48;;;;;;;9.70;2.70;;;;;;;-1.34;82.03;101042.00;84587;1329;22629;-81
2022/01/15 03:17:56;;;;;;;13.60;3.30;;;;;;;-1.34;82.11;101041.31;84627;1329;22629;-81
2022/01/15 03:20:07;;;;;;;16.90;3.70;;;;;;;-1.34;82.03;101040.98;84636;1329;22574;-81
2022/01/15 03:22:14;;;;;;;;;;;;;;;-1.34;81.93;101043.55;84657;1331;22566;-81
2022/01/15 03:24:23;;;;;;;10.00;2.40;;;;;;;-1.37;82.19;101046.56;84640;1330;22597;-80
2022/01/15 03:26:31;;;;;;;10.90;3.70;;;;;;;-1.40;81.85;101045.31;84593;1331;22619;-81
2022/01/15 03:28:40;;;;;;;18.50;3.10;;;;;;;-1.43;81.93;101042.86;84589;1330;25272;-80
2022/01/15 03:30:53;;;;;;;19.50;4.40;;;;;;;-1.46;82.13;101043.98;83864;1329;1002972;-80
2022/01/15 03:33:03;;;;;;;8.90;3.10;;;;;;;-1.48;82.07;101045.98;84625;1329;22573;-75
2022/01/15 03:35:16;;;;;;;12.30;3.40;;;;;;;-1.50;82.13;101047.31;84613;1325;25338;-80
2022/01/15 03:37:28;;;;;;;4.90;2.80;;;;;;;-1.52;82.20;101044.71;84604;1333;22592;-81
2022/01/15 03:39:38;;;;;;;13.80;3.40;;;;;;;-1.54;82.35;101051.35;84627;1329;22826;-80
2022/01/15 03:41:47;;;;;;;7.00;3.80;;;;;;;-1.56;82.60;101039.66;84592;1329;22596;-81
2022/01/15 03:43:55;;;;;;;11.90;3.50;;;;;;;-1.56;82.46;101042.23;84576;1334;22660;-81
2022/01/15 03:46:07;;;;;;;14.10;3.50;;;;;;;-1.56;82.47;101049.08;84629;1330;22647;-80
2022/01/15 03:48:16;;;;;;;12.00;3.90;;;;;;;-1.58;82.59;101049.54;84623;1325;22613;-79
2022/01/15 03:50:27;;;;;;;14.10;3.50;;;;;;;-1.63;82.69;101046.00;84569;1329;23065;-81
2022/01/15 03:52:39;;;;;;;14.20;5.20;;;;;;;-1.66;82.72;101037.73;84620;1330;22914;-80
2022/01/15 03:54:51;;;;;;;15.30;4.20;;;;;;;-1.67;82.87;101040.77;84568;1329;24441;-81
2022/01/15 03:57:02;;;;;;;10.00;4.10;;;;;;;-1.68;82.91;101044.16;84625;1330;22605;-80
2022/01/15 03:59:12;;;;;;;11.70;4.00;;;;;;;-1.68;82.86;101050.84;84593;1329;23832;-68
2022/01/15 04:01:24;;;;;;;15.10;4.00;;;;;;;-1.68;82.88;101065.05;84621;1330;26497;-67
2022/01/15 04:03:34;;;;;;;21.70;3.50;;;;;;;-1.68;83.10;101065.90;83174;1335;1003085;-69
2022/01/15 04:05:46;;;;;;;9.10;3.70;;;;;;;-1.67;82.91;101063.88;84575;1329;22752;-69
2022/01/15 04:07:55;;;;;;;15.60;4.50;;;;;;;-1.66;83.33;101063.05;84542;1335;22889;-69
2022/01/15 04:10:04;;;;;;;9.00;3.50;;;;;;;-1.66;83.06;101064.41;84581;1330;22822;-80
2022/01/15 04:12:16;;;;;;;11.50;4.00;;;;;;;-1.68;82.86;101063.16;84582;1335;22593;-78
2022/01/15 04:14:25;;;;;;;15.50;4.60;;;;;;;-1.71;83.12;101060.52;84575;1330;24309;-80
2022/01/15 04:16:36;;;;;;;14.30;4.90;;;;;;;-1.74;83.10;101062.01;84575;1329;23946;-78
2022/01/15 04:18:48;;;;;;;14.00;4.10;;;;;;;-1.76;83.04;101068.28;84591;1329;22781;-80
2022/01/15 04:21:01;;;;;;;13.10;5.10;;;;;;;-1.79;83.24;101068.40;84631;1329;22596;-81
2022/01/15 04:23:10;;;;;;;13.10;4.60;;;;;;;-1.81;83.18;101072.45;84614;1329;22600;-80
2022/01/15 04:25:21;;;;;;;10.70;4.20;;;;;;;-1.84;83.11;101079.23;84560;1330;22813;-80
2022/01/15 04:27:30;;;;;;;13.70;4.80;;;;;;;-1.85;83.22;101076.29;84606;1330;25327;-80
2022/01/15 04:29:39;;;;;;;19.40;6.20;;;;;;;-1.84;83.57;101082.30;84573;1327;22910;-79
2022/01/15 04:31:48;;;;;;;17.10;4.80;;;;;;;-1.84;83.58;101084.70;84626;1329;22768;-80
2022/01/15 04:33:57;;;;;;;20.00;4.10;;;;;;;-1.86;83.51;101089.77;84586;1332;24103;-69
2022/01/15 04:36:10;;;;;;;16.70;6.40;;;;;;;-1.89;83.53;101090.21;84624;1329;22669;-69
2022/01/15 04:38:22;;;;;;;16.20;4.20;;;;;;;-1.90;83.67;101088.97;84639;1330;22594;-69
2022/01/15 04:40:31;;;;;;;17.70;6.50;;;;;;;-1.94;83.57;101095.73;84630;1325;24246;-69
2022/01/15 04:42:40;;;;;;;16.90;4.60;;;;;;;-1.97;83.61;101096.86;84611;1329;22593;-68
2022/01/15 04:44:49;;;;;;;14.90;4.70;;;;;;;-1.99;83.65;101097.15;84601;1335;24252;-81
2022/01/15 04:47:03;;;;;;;17.70;4.90;;;;;;;-1.99;83.83;101095.09;84598;1328;24291;-81
2022/01/15 04:49:12;;;;;;;13.40;3.90;;;;;;;-1.99;83.70;101092.19;84562;1326;22804;-81
2022/01/15 04:51:23;;;;;;;15.60;5.30;;;;;;;-1.98;84.01;101088.44;84592;1329;22955;-80
2022/01/15 04:53:33;;;;;;;13.00;4.80;;;;;;;-1.97;83.91;101090.89;84567;1330;22611;-68
2022/01/15 04:55:41;;;;;;;13.70;4.90;;;;;;;-1.96;83.94;101093.63;84606;1332;24013;-67
2022/01/15 04:57:50;;;;;;;13.30;5.60;;;;;;;-1.96;83.95;101098.26;84479;1336;24408;-68
2022/01/15 04:59:59;;;;;;;13.20;4.80;;;;;;;-1.97;84.16;101105.76;84386;1329;276910;-68
2022/01/15 05:02:08;;;;;;;13.60;4.50;;;;;;;-1.99;84.11;101110.81;84478;1332;22615;-68
2022/01/15 05:04:17;;;;;;;13.10;5.10;;;;;;;-2.02;83.82;101117.77;84590;1334;22601;-80
2022/01/15 05:06:26;;;;;;;10.90;4.60;;;;;;;-2.03;83.92;101119.77;84597;1330;26500;-81
2022/01/15 05:08:35;;;;;;;15.50;5.20;;;;;;;-2.04;84.17;101119.91;84638;1331;25409;-67
2022/01/15 05:10:47;;;;;;;11.60;4.20;;;;;;;-2.04;84.09;101125.56;84569;1330;23804;-68
2022/01/15 05:13:01;;;;;;;8.90;3.60;;;;;;;-2.03;84.24;101128.99;84582;1330;26522;-68
2022/01/15 05:15:12;;;;;;;19.30;5.40;;;;;;;-2.03;84.35;101137.73;84633;1329;25458;-68
2022/01/15 05:17:21;;;;;;;14.90;5.50;;;;;;;-2.03;84.65;101138.45;84651;1329;22594;-68
2022/01/15 05:19:29;;;;;;;13.50;4.30;;;;;;;-2.03;84.44;101140.45;84594;1330;22628;-80
2022/01/15 05:21:38;;;;;;;11.50;4.40;;;;;;;-2.04;84.38;101147.45;84571;1330;22917;-80
2022/01/15 05:23:47;;;;;;;13.10;4.20;;;;;;;-2.06;84.36;101145.85;84620;1329;22610;-68
2022/01/15 05:25:56;;;;;;;18.00;5.80;;;;;;;-2.07;84.41;101151.30;84585;1332;24245;-68
2022/01/15 05:28:09;;;;;;;12.60;3.80;;;;;;;-2.08;84.45;101151.61;84585;1330;22607;-68
2022/01/15 05:30:20;;;;;;;19.60;5.60;;;;;;;-2.08;84.43;101149.06;84588;1333;22604;-68
2022/01/15 05:32:32;;;;;;;13.00;4.90;;;;;;;-2.05;84.56;101154.61;84595;1329;22596;-68
2022/01/15 05:34:41;;;;;;;19.90;4.60;;;;;;;-2.04;84.62;101153.44;84483;1332;25461;-80
2022/01/15 05:36:50;;;;;;;13.00;3.90;;;;;;;-2.02;84.64;101154.16;84627;1330;22650;-77
2022/01/15 05:39:02;;;;;;;14.20;5.10;;;;;;;-2.00;84.86;101154.90;84562;1333;22808;-79
2022/01/15 05:41:13;;;;;;;16.00;4.80;;;;;;;-2.00;84.81;101153.73;84621;1325;22724;-81
2022/01/15 05:43:22;;;;;;;12.60;5.50;;;;;;;-2.01;84.58;101149.93;84578;1329;22713;-79
2022/01/15 05:45:34;;;;;;;14.60;4.60;;;;;;;-2.03;84.61;101157.05;84642;1329;22707;-80
2022/01/15 05:47:43;;;;;;;11.40;4.90;;;;;;;-2.04;84.60;101160.79;84591;1330;25439;-78
2022/01/15 05:49:52;;;;;;;14.10;4.50;;;;;;;-2.03;84.70;101164.39;84566;1329;22607;-69
2022/01/15 05:52:01;;;;;;;13.30;5.40;;;;;;;-2.03;84.69;101162.17;84634;1329;24271;-68
2022/01/15 05:54:11;;;;;;;15.30;4.80;;;;;;;-2.00;84.96;101163.63;84625;1325;22918;-79
2022/01/15 05:56:23;;;;;;;11.60;3.60;;;;;;;-1.98;84.93;101166.60;84621;1329;22643;-79
2022/01/15 05:58:32;;;;;;;9.70;4.30;;;;;;;-1.97;84.71;101167.30;84568;1333;24295;-68
2022/01/15 06:00:44;;;;;;;17.20;5.20;;;;;;;-1.98;84.70;101167.80;84644;1329;25443;-68
2022/01/15 06:02:56;;;;;;;14.50;4.10;;;;;;;-1.99;84.73;101157.85;84587;1329;22676;-69
2022/01/15 06:05:05;;;;;;;16.20;5.30;;;;;;;-2.00;84.74;101157.48;84586;1330;25306;-80
2022/01/15 06:07:17;;;;;;;18.20;5.00;;;;;;;-2.03;84.86;101161.52;84573;1329;25423;-79
2022/01/15 06:09:26;;;;;;;12.00;4.90;;;;;;;-2.08;84.71;101160.52;84626;1325;22634;-79
2022/01/15 06:11:35;;;;;;;15.50;5.40;;;;;;;-2.10;84.83;101161.84;84627;1329;25555;-80
2022/01/15 06:13:47;;;;;;;19.70;5.60;;;;;;;-2.11;84.80;101166.09;84596;1330;22618;-68
2022/01/15 06:15:56;;;;;;;13.00;5.20;;;;;;;-2.11;84.90;101170.38;84628;1329;22627;-69
2022/01/15 06:18:07;;;;;;;22.00;7.30;;;;;;;-2.10;84.86;101171.92;84589;1330;25256;-79
2022/01/15 06:20:19;;;;;;;14.40;5.40;;;;;;;-2.09;85.02;101168.86;84564;1329;22802;-81
2022/01/15 06:22:28;;;;;;;16.20;4.50;;;;;;;-2.09;84.89;101168.20;84566;1329;24076;-80
2022/01/15 06:24:39;;;;;;;14.30;4.80;;;;;;;-2.07;85.14;101170.28;84611;1329;22597;-70
2022/01/15 06:26:48;;;;;;;11.80;4.30;;;;;;;-2.07;85.07;101172.34;84586;1331;24193;-67
2022/01/15 06:28:56;;;;;;;16.00;5.30;;;;;;;-2.10;84.87;101172.79;84617;1329;22890;-68
2022/01/15 06:31:05;;;;;;;14.00;4.60;;;;;;;-2.12;85.06;101179.75;84574;1333;22619;-67
2022/01/15 06:33:14;;;;;;;14.00;4.20;;;;;;;-2.12;85.16;101184.67;84560;1328;22583;-68
2022/01/15 06:35:23;;;;;;;13.60;4.70;;;;;;;-2.12;85.21;101185.20;84548;1335;22724;-68
2022/01/15 06:37:31;;;;;;;11.50;3.80;;;;;;;-2.13;84.90;101186.56;84592;1330;22608;-68
2022/01/15 06:39:40;;;;;;;15.20;4.50;;;;;;;-2.13;85.01;101183.46;84609;1325;23058;-67
2022/01/15 06:41:49;;;;;;;11.50;5.20;;;;;;;-2.12;85.12;101187.25;84576;1333;22614;-69
2022/01/15 06:43:58;;;;;;;13.20;4.70;;;;;;;-2.10;85.10;101188.16;84594;1329;26545;-80
2022/01/15 06:46:07;;;;;;;13.20;4.00;;;;;;;-2.09;85.25;101192.29;84613;1330;22922;-79
2022/01/15 06:48:16;;;;;;;16.10;4.90;;;;;;;-2.08;85.32;101194.71;84605;1331;23807;-69
2022/01/15 06:50:25;;;;;;;15.30;4.30;;;;;;;-2.08;85.21;101190.77;84588;1330;25602;-69
2022/01/15 06:52:35;;;;;;;10.80;4.00;;;;;;;-2.09;85.12;101194.16;84521;1335;23294;-69
2022/01/15 06:54:43;;;;;;;11.50;4.20;;;;;;;-2.10;85.05;101195.00;84655;1330;22594;-79
2022/01/15 06:56:55;;;;;;;12.90;4.50;;;;;;;-2.10;85.08;101193.64;84600;1333;22596;-80
2022/01/15 06:59:04;;;;;;;13.70;3.50;;;;;;;-2.08;85.18;101190.77;84568;1333;22862;-67
2022/01/15 07:01:16;;;;;;;9.90;4.10;;;;;;;-2.03;85.26;101187.64;84620;1330;24239;-68
2022/01/15 07:03:24;;;;;;;11.10;4.10;;;;;;;-1.99;85.35;101187.58;84586;1329;22793;-68
2022/01/15 07:05:38;;;;;;;16.90;5.50;;;;;;;-1.96;85.22;101194.34;84586;1333;22599;-68
2022/01/15 07:07:52;;;;;;;18.10;4.80;;;;;;;-1.95;85.12;101199.33;84613;1332;22881;-68
2022/01/15 07:10:11;;;;;;;19.30;5.20;;;;;;;-1.95;85.13;101200.87;84566;1333;22850;-68
2022/01/15 07:12:20;;;;;;;15.50;5.20;;;;;;;-1.94;85.30;101210.45;84502;1336;26520;-68
2022/01/15 07:14:29;;;;;;;11.60;4.90;;;;;;;-1.93;85.18;101216.63;84568;1329;23918;-79
2022/01/15 07:16:38;;;;;;;11.60;4.00;;;;;;;-1.93;85.18;101220.05;84568;1333;25382;-79
2022/01/15 07:18:46;;;;;;;18.00;7.20;;;;;;;-1.92;85.10;101213.58;84629;1333;26487;-69
2022/01/15 07:20:55;;;;;;;18.20;5.40;;;;;;;-1.90;85.37;101213.14;84610;1332;22861;-69
2022/01/15 07:23:07;;;;;;;21.60;6.10;;;;;;;-1.86;85.25;101213.60;84575;1330;24020;-78
2022/01/15 07:25:19;;;;;;;11.10;5.10;;;;;;;-1.75;85.46;101218.64;84637;1325;22939;-79
2022/01/15 07:27:28;;;;;;;18.90;5.80;;;;;;;-1.62;85.45;101218.80;84610;1329;22740;-80
2022/01/15 07:29:38;;;;;;;16.00;4.60;;;;;;;-1.44;85.51;101218.58;84587;1333;24351;-68
2022/01/15 07:31:51;;;;;;;19.20;5.30;;;;;;;-1.21;85.66;101216.90;84625;1333;23058;-68
2022/01/15 07:34:03;;;;;;;25.00;6.70;;;;;;;-0.87;85.78;101217.33;84657;1331;22640;-80
2022/01/15 07:36:12;;;;;;;15.60;4.80;;;;;;;-0.36;86.06;101222.51;84576;1334;22615;-80
2022/01/15 07:38:21;;;;;;;16.20;6.90;;;;;;;0.07;85.97;101227.63;84599;1330;25453;-68
2022/01/15 07:40:34;;;;;;;12.30;5.10;;;;;;;0.37;84.63;101228.85;84592;1331;22816;-68
2022/01/15 07:42:46;;;;;;;13.40;5.90;;;;;;;0.60;83.95;101231.14;84633;1332;24400;-68
2022/01/15 07:44:57;;;;;;;15.50;4.50;;;;;;;1.24;84.73;101228.48;84592;1329;25455;-69
2022/01/15 07:47:08;;;;;;;12.50;5.00;;;;;;;2.00;84.12;101228.38;84568;1333;22592;-67
2022/01/15 07:49:16;;;;;;;11.60;4.40;;;;;;;2.69;83.42;101222.84;84650;1329;22592;-69
2022/01/15 07:51:25;;;;;;;11.00;4.90;;;;;;;3.31;82.18;101225.65;84586;1334;22688;-69
2022/01/15 07:53:37;;;;;;;10.80;4.00;;;;;;;3.78;80.12;101225.86;84655;1330;22602;-69
2022/01/15 07:55:45;;;;;;;9.10;4.80;;;;;;;4.09;79.95;101227.85;84611;1330;25470;-69
2022/01/15 07:57:55;;;;;;;11.80;4.60;;;;;;;4.27;77.86;101236.17;84627;1330;22622;-69
2022/01/15 08:00:10;;;;;;;8.80;4.30;;;;;;;4.35;77.11;101241.55;84610;1329;23960;-81
2022/01/15 08:02:21;;;;;;;13.50;4.60;;;;;;;4.33;76.30;101241.37;84595;1335;22588;-80
2022/01/15 08:04:31;;;;;;;15.20;5.50;;;;;;;4.24;75.46;101242.73;84639;1333;22619;-81
2022/01/15 08:06:41;;;;;;;13.60;5.40;;;;;;;4.14;74.61;101247.03;83870;1332;1003495;-80
2022/01/15 08:08:48;;;;;;;;;;;;;;;4.02;73.75;101247.67;84637;1329;22634;-80
2022/01/15 08:10:57;;;;;;;15.60;5.50;;;;;;;3.72;72.89;101247.41;84581;1334;22629;-82
2022/01/15 08:13:06;;;;;;;11.90;4.60;;;;;;;3.49;72.56;101243.34;84640;1329;22741;-80
2022/01/15 08:15:15;;;;;;;19.60;5.40;;;;;;;3.24;72.24;101247.34;84643;1330;24257;-81
2022/01/15 08:17:28;;;;;;;22.70;6.40;;;;;;;3.02;72.40;101243.41;84633;1333;22951;-82
2022/01/15 08:19:39;;;;;;;20.20;7.10;;;;;;;2.84;72.71;101245.35;84648;1330;22619;-68
2022/01/15 08:21:48;;;;;;;12.20;5.60;;;;;;;2.63;72.18;101242.08;84563;1330;22613;-68
2022/01/15 08:23:57;;;;;;;13.20;5.80;;;;;;;2.46;72.95;101243.50;84588;1330;22597;-70
2022/01/15 08:26:06;;;;;;;14.30;5.60;;;;;;;2.34;73.46;101252.49;84477;1336;24154;-69
2022/01/15 08:28:16;;;;;;;11.50;5.60;;;;;;;2.21;73.52;101259.42;84643;1332;22594;-70
2022/01/15 08:30:25;;;;;;;19.50;5.70;;;;;;;2.08;73.54;101265.30;84624;1330;26522;-69
2022/01/15 08:32:36;;;;;;;13.10;5.30;;;;;;;1.95;73.94;101268.25;84577;1335;22620;-69
2022/01/15 08:34:46;;;;;;;16.20;5.00;;;;;;;1.87;74.56;101266.10;84577;1330;22626;-79
2022/01/15 08:36:58;;;;;;;17.70;5.30;;;;;;;1.82;74.66;101263.29;84619;1333;22872;-82
2022/01/15 08:39:08;;;;;;;14.10;4.40;;;;;;;1.78;74.82;101269.08;84638;1328;22593;-69
2022/01/15 08:41:20;;;;;;;14.00;6.60;;;;;;;1.76;75.08;101265.96;84631;1333;22630;-67
2022/01/15 08:43:29;;;;;;;17.20;6.30;;;;;;;1.84;75.27;101264.00;84545;1334;24236;-69
2022/01/15 08:45:39;;;;;;;14.60;5.00;;;;;;;2.10;75.30;101260.16;84620;1329;22600;-69
2022/01/15 08:47:51;;;;;;;10.70;5.20;;;;;;;2.44;75.16;101256.55;84611;1334;24270;-69
2022/01/15 08:50:00;;;;;;;13.80;5.50;;;;;;;2.82;74.07;101254.65;84624;1329;22917;-81
2022/01/15 08:52:10;;;;;;;14.10;5.60;;;;;;;3.16;73.90;101254.20;84635;1331;22619;-80
2022/01/15 08:54:19;;;;;;;12.60;5.10;;;;;;;3.39;73.13;101255.19;84669;1327;22594;-80
2022/01/15 08:56:30;;;;;;;10.40;5.10;;;;;;;3.50;72.51;101250.26;84557;1330;22596;-81
2022/01/15 08:58:42;;;;;;;14.30;5.40;;;;;;;3.51;72.64;101253.36;84654;1330;22644;-69
2022/01/15 09:00:55;;;;;;;15.00;5.70;;;;;;;3.49;72.09;101253.17;84642;1333;22635;-70
2022/01/15 09:03:06;;;;;;;11.10;5.00;;;;;;;3.32;71.35;101253.26;84598;1332;23944;-74
2022/01/15 09:05:15;;;;;;;11.90;5.10;;;;;;;3.25;71.89;101262.52;84619;1333;22631;-77
2022/01/15 09:07:27;;;;;;;15.90;6.30;;;;;;;3.32;71.44;101260.15;84642;1333;22604;-79
2022/01/15 09:09:37;;;;;;;16.60;5.60;;;;;;;3.55;71.39;101257.52;84618;1330;25345;-70
2022/01/15 09:11:46;;;;;;;11.10;5.70;;;;;;;3.86;70.54;101259.55;84637;1326;22660;-69
2022/01/15 09:13:55;;;;;;;14.70;5.30;;;;;;;4.24;70.49;101259.50;84563;1329;23842;-80
2022/01/15 09:16:04;;;;;;;10.60;5.10;;;;;;;4.63;70.29;101260.77;84618;1330;22603;-80
2022/01/15 09:18:15;;;;;;;12.60;5.80;;;;;;;5.09;69.90;101262.12;84611;1333;22600;-79
2022/01/15 09:20:24;;;;;;;13.70;4.50;;;;;;;5.47;68.30;101265.69;84621;1330;23860;-80
2022/01/15 09:22:33;;;;;;;12.50;5.50;;;;;;;5.70;68.27;101272.19;84582;1333;25415;-79
2022/01/15 09:24:44;;;;;;;12.90;5.40;;;;;;;6.07;68.01;101274.14;84588;1333;23957;-67
2022/01/15 09:30:11;;;;;;;11.70;4.70;;;;;;;6.28;66.60;101270.21;84647;1333;22644;-68
2022/01/15 09:31:59;;;;;;;8.40;4.10;;;;;;;6.68;65.49;101274.96;84601;1330;22619;-79
2022/01/15 09:34:12;;;;;;;14.40;6.00;;;;;;;6.69;64.80;101274.79;84632;1333;24330;-69
2022/01/15 09:36:25;;;;;;;12.70;6.20;;;;;;;6.86;64.66;101273.09;84566;1330;22633;-68
2022/01/15 09:38:34;;;;;;;10.60;5.40;;;;;;;6.87;64.37;101273.79;84556;1330;22653;-68
2022/01/15 09:40:46;;;;;;;15.20;6.70;;;;;;;6.74;64.32;101279.43;84584;1331;22597;-69
2022/01/15 09:43:00;;;;;;;10.90;5.00;;;;;;;6.81;64.32;101276.09;84557;1330;22843;-66
2022/01/15 09:45:12;;;;;;;11.20;4.40;;;;;;;6.92;63.31;101273.05;84644;1333;22685;-78
2022/01/15 09:47:22;;;;;;;10.50;4.30;;;;;;;6.99;62.84;101271.77;84610;1333;25595;-79
2022/01/15 09:49:33;;;;;;;10.10;4.10;;;;;;;7.02;63.58;101263.94;84571;1333;22599;-68
2022/01/15 09:51:42;;;;;;;12.80;3.90;;;;;;;7.29;62.97;101265.41;84578;1330;22805;-67
2022/01/15 09:53:51;;;;;;;9.40;4.80;;;;;;;7.52;62.70;101264.64;84628;1333;22568;-76
2022/01/15 09:56:06;;;;;;;13.70;4.80;;;;;;;7.43;62.23;101263.00;84582;1333;23060;-77
2022/01/15 09:58:15;;;;;;;11.50;4.70;;;;;;;7.23;61.09;101269.46;84604;1333;22592;-76
2022/01/15 10:00:25;;;;;;;8.80;4.00;;;;;;;6.92;61.26;101271.30;84651;1333;22603;-76
2022/01/15 10:02:34;;;;;;;9.70;3.90;;;;;;;6.84;61.85;101275.02;84627;1333;26564;-77
2022/01/15 10:04:47;;;;;;;13.20;3.90;;;;;;;6.61;61.73;101271.56;84615;1332;22874;-66
2022/01/15 10:07:14;;;;;;;14.50;4.40;;;;;;;6.43;61.88;101276.02;84628;1330;22594;-83
2022/01/15 10:09:27;;;;;;;9.20;3.80;;;;;;;6.17;62.04;101279.81;84601;1333;26016;-80
2022/01/15 10:11:49;;;;;;;11.00;4.30;;;;;;;5.87;61.98;101286.16;84631;1332;22939;-79
2022/01/15 10:13:57;;;;;;;7.90;4.20;;;;;;;5.62;62.65;101287.98;84549;1333;26503;-68
2022/01/15 10:16:21;;;;;;;12.10;5.20;;;;;;;5.41;63.11;101290.95;84564;1333;24275;-68
2022/01/15 10:18:31;;;;;;;14.90;5.50;;;;;;;5.15;63.38;101286.85;84648;1330;22609;-79